Time;durP1;ratioP1;P1;durP2;ratioP2;P2;SDS_P1;SDS_P2;PMS_P1;PMS_P2;Temp;Humidity;BMP_temperature;BMP_pressure;BME280_temperature;BME280_humidity;BME280_pressure;Samples;Min_cycle;Max_cycle;Signal;HPM_P1;HPM_P2
2023/03/15 00:00:56;;;;;;;2.97;2.70;;;;;4.10;95502.00;;;;8366101;28;20204;-70
2023/03/15 00:04:59;;;;;;;3.37;2.97;;;;;4.10;95500.00;;;;8367609;28;21829;-71
2023/03/15 00:09:04;;;;;;;4.07;2.67;;;;;4.20;95497.00;;;;8361261;28;20257;-71
2023/03/15 00:13:08;;;;;;;4.13;3.10;;;;;4.20;95507.00;;;;8380858;28;20654;-72
2023/03/15 00:17:12;;;;;;;3.43;3.13;;;;;4.10;95520.00;;;;8369487;28;20246;-72
2023/03/15 00:21:17;;;;;;;4.33;3.30;;;;;4.10;95536.00;;;;8357236;28;20193;-72
2023/03/15 00:25:22;;;;;;;5.73;3.90;;;;;4.10;95545.00;;;;8369651;28;20228;-72
2023/03/15 00:29:27;;;;;;;4.90;3.37;;;;;4.10;95548.00;;;;8373152;28;20218;-74
2023/03/15 00:33:33;;;;;;;5.10;2.83;;;;;4.10;95555.00;;;;8367380;28;20207;-73
2023/03/15 00:37:37;;;;;;;6.83;2.43;;;;;4.00;95550.00;;;;8349092;28;20203;-73
2023/03/15 00:41:44;;;;;;;4.93;2.40;;;;;3.90;95548.00;;;;8366974;28;20226;-72
2023/03/15 00:45:48;;;;;;;5.23;2.93;;;;;3.90;95557.00;;;;8370621;28;20312;-72
2023/03/15 00:49:54;;;;;;;9.23;2.57;;;;;3.80;95550.00;;;;8359497;28;20294;-72
2023/03/15 00:53:57;;;;;;;1.93;1.80;;;;;3.80;95549.00;;;;8365029;28;20295;-73
2023/03/15 00:58:01;;;;;;;7.77;2.07;;;;;3.70;95555.00;;;;8373071;28;20198;-73
2023/03/15 01:02:06;;;;;;;2.33;1.97;;;;;3.70;95561.00;;;;8364498;28;20220;-72
2023/03/15 01:06:13;;;;;;;2.00;1.80;;;;;3.70;95564.00;;;;8377400;28;20284;-72
2023/03/15 01:10:18;;;;;;;6.90;2.10;;;;;3.70;95576.00;;;;8364794;28;20680;-72
2023/03/15 01:14:26;;;;;;;7.00;2.17;;;;;3.60;95575.00;;;;8384279;28;20219;-72
2023/03/15 01:18:33;;;;;;;2.93;2.13;;;;;3.60;95574.00;;;;8382894;28;20199;-72
2023/03/15 01:22:37;;;;;;;3.63;1.90;;;;;3.60;95578.00;;;;8385520;28;20255;-73
2023/03/15 01:26:43;;;;;;;4.73;2.50;;;;;3.50;95585.00;;;;8373379;28;20748;-71
2023/03/15 01:30:50;;;;;;;9.33;2.33;;;;;3.50;95577.00;;;;8379769;28;20974;-72
2023/03/15 01:34:54;;;;;;;7.13;2.43;;;;;3.50;95575.00;;;;8382932;28;20200;-73
2023/03/15 01:38:58;;;;;;;5.23;2.63;;;;;3.50;95581.00;;;;8380060;28;20203;-72
2023/03/15 01:43:18;;;;;;;6.70;2.30;;;;;3.40;95585.00;;;;8377161;28;20230;-73
2023/03/15 01:47:24;;;;;;;7.47;2.47;;;;;3.50;95589.00;;;;8372719;28;20246;-73
2023/03/15 01:51:37;;;;;;;10.20;2.90;;;;;3.50;95595.00;;;;8377598;28;20220;-72
2023/03/15 01:55:41;;;;;;;5.67;2.67;;;;;3.50;95597.00;;;;8380129;28;20770;-73
2023/03/15 01:59:49;;;;;;;6.63;2.33;;;;;3.50;95612.00;;;;8376431;28;20621;-72
2023/03/15 02:04:00;;;;;;;4.57;2.33;;;;;3.50;95633.00;;;;8373901;28;20235;-72
2023/03/15 02:08:07;;;;;;;12.73;2.83;;;;;3.50;95641.00;;;;8367786;28;20223;-74
2023/03/15 02:12:11;;;;;;;13.20;2.60;;;;;3.50;95648.00;;;;8357281;28;20201;-73
2023/03/15 02:16:17;;;;;;;12.17;2.63;;;;;3.40;95652.00;;;;8377041;28;20561;-73
2023/03/15 02:20:33;;;;;;;6.83;2.37;;;;;3.40;95656.00;;;;8384642;28;20202;-73
2023/03/15 02:24:45;;;;;;;7.90;2.53;;;;;3.40;95659.00;;;;8378696;28;20234;-72
2023/03/15 02:28:52;;;;;;;9.30;2.43;;;;;3.40;95660.00;;;;8375208;28;20192;-72
2023/03/15 02:32:57;;;;;;;7.93;2.50;;;;;3.40;95672.00;;;;8369027;28;20216;-72
2023/03/15 02:37:01;;;;;;;12.33;2.40;;;;;3.40;95689.00;;;;8378781;28;20269;-72
2023/03/15 02:41:05;;;;;;;5.10;2.53;;;;;3.30;95696.00;;;;8375496;28;20215;-71
2023/03/15 02:45:17;;;;;;;9.67;2.40;;;;;3.10;95704.00;;;;8379942;28;20234;-71
2023/03/15 02:49:25;;;;;;;8.37;2.60;;;;;3.00;95718.00;;;;8381047;28;20203;-70
2023/03/15 02:53:32;;;;;;;11.40;2.87;;;;;2.90;95738.00;;;;8375787;28;20608;-69
2023/03/15 02:57:36;;;;;;;12.40;2.77;;;;;2.70;95741.00;;;;8380610;28;20271;-69
2023/03/15 03:01:44;;;;;;;16.60;2.73;;;;;2.70;95737.00;;;;8396264;22;21039;-69
2023/03/15 03:05:51;;;;;;;17.27;2.70;;;;;2.50;95724.00;;;;8387882;28;20225;-68
2023/03/15 03:10:03;;;;;;;14.23;3.20;;;;;2.50;95742.00;;;;8407344;28;20245;-70
2023/03/15 03:14:12;;;;;;;5.40;2.50;;;;;2.50;95753.00;;;;8413011;28;20202;-69
2023/03/15 03:18:17;;;;;;;13.23;2.70;;;;;2.50;95768.00;;;;8413460;28;20203;-70
2023/03/15 03:22:24;;;;;;;6.87;2.53;;;;;2.50;95780.00;;;;8390000;28;20232;-69
2023/03/15 03:26:31;;;;;;;11.00;2.80;;;;;2.60;95780.00;;;;8375503;28;20224;-71
2023/03/15 03:30:37;;;;;;;10.93;2.27;;;;;2.60;95784.00;;;;8382489;28;20209;-73
2023/03/15 03:34:47;;;;;;;4.30;2.20;;;;;2.60;95797.00;;;;8415201;28;20212;-73
2023/03/15 03:38:53;;;;;;;6.67;2.70;;;;;2.60;95818.00;;;;8404959;28;20797;-76
2023/03/15 03:42:57;;;;;;;8.83;2.50;;;;;2.70;95832.00;;;;8401091;28;20211;-77
2023/03/15 03:47:00;;;;;;;6.77;2.30;;;;;2.70;95835.00;;;;8400429;28;20224;-76
2023/03/15 03:51:08;;;;;;;3.33;2.03;;;;;2.80;95855.00;;;;8400153;28;20194;-78
2023/03/15 03:55:14;;;;;;;11.03;2.50;;;;;2.80;95862.00;;;;8402580;28;20902;-78
2023/03/15 03:59:17;;;;;;;4.93;2.20;;;;;2.80;95862.00;;;;8410307;28;20197;-76
2023/03/15 04:03:25;;;;;;;8.07;2.17;;;;;2.80;95870.00;;;;8386160;28;20241;-84
2023/03/15 04:07:34;;;;;;;2.60;2.00;;;;;2.80;95876.00;;;;8383356;28;20252;-83
2023/03/15 04:11:38;;;;;;;3.47;2.27;;;;;2.80;95878.00;;;;8379226;28;20264;-78
2023/03/15 04:15:41;;;;;;;4.87;2.73;;;;;2.80;95883.00;;;;8379760;28;20201;-83
2023/03/15 04:19:48;;;;;;;7.80;2.47;;;;;2.80;95889.00;;;;8374374;28;20289;-79
2023/03/15 04:23:55;;;;;;;7.00;3.10;;;;;2.80;95894.00;;;;8380317;28;20539;-79
2023/03/15 04:27:59;;;;;;;11.80;3.30;;;;;2.80;95899.00;;;;8379640;28;20234;-77
2023/03/15 04:32:03;;;;;;;9.27;3.27;;;;;2.80;95907.00;;;;8373912;28;20229;-76
2023/03/15 04:36:17;;;;;;;14.70;3.80;;;;;2.80;95902.00;;;;8378099;28;20207;-78
2023/03/15 04:40:22;;;;;;;10.60;4.07;;;;;2.80;95915.00;;;;8381025;28;20211;-74
2023/03/15 04:44:30;;;;;;;16.30;4.50;;;;;2.80;95926.00;;;;8381606;28;20203;-77
2023/03/15 04:48:33;;;;;;;13.33;4.57;;;;;2.80;95940.00;;;;8378981;28;20317;-78
2023/03/15 04:52:36;;;;;;;16.40;4.97;;;;;2.80;95957.00;;;;8381213;28;20207;-78
2023/03/15 04:56:44;;;;;;;18.70;5.10;;;;;2.80;95960.00;;;;8380793;28;20232;-78
2023/03/15 05:00:47;;;;;;;17.37;5.93;;;;;2.80;95973.00;;;;8386747;28;20207;-75
2023/03/15 05:04:54;;;;;;;20.67;5.93;;;;;2.80;95982.00;;;;8369874;28;20204;-73
2023/03/15 05:09:00;;;;;;;20.07;5.67;;;;;2.80;95991.00;;;;8371283;28;20297;-78
2023/03/15 05:13:04;;;;;;;15.17;5.53;;;;;2.80;96000.00;;;;8376646;28;20855;-75
2023/03/15 05:17:10;;;;;;;17.07;6.13;;;;;2.70;96003.00;;;;8378252;28;20299;-76
2023/03/15 05:21:14;;;;;;;15.50;6.07;;;;;2.70;96008.00;;;;8379277;28;20198;-72
2023/03/15 05:25:17;;;;;;;17.47;5.50;;;;;2.60;96020.00;;;;8370506;28;20589;-70
2023/03/15 05:29:22;;;;;;;16.00;5.57;;;;;2.60;96031.00;;;;8380823;28;20331;-71
2023/03/15 05:33:25;;;;;;;13.60;5.90;;;;;2.50;96037.00;;;;8376740;28;20199;-73
2023/03/15 05:37:31;;;;;;;20.43;5.90;;;;;2.50;96047.00;;;;8373632;28;20682;-69
2023/03/15 05:41:35;;;;;;;20.63;6.27;;;;;2.40;96045.00;;;;8378795;28;20195;-69
2023/03/15 05:45:43;;;;;;;19.30;6.37;;;;;2.30;96059.00;;;;8367988;28;20743;-70
2023/03/15 05:49:52;;;;;;;24.37;6.67;;;;;2.30;96074.00;;;;8376022;28;20633;-69
2023/03/15 05:54:02;;;;;;;20.97;6.27;;;;;2.20;96074.00;;;;8372682;28;20207;-69
2023/03/15 05:58:06;;;;;;;17.40;6.10;;;;;2.20;96085.00;;;;8376315;28;20233;-69
2023/03/15 06:02:11;;;;;;;25.33;6.57;;;;;2.20;96088.00;;;;8382732;28;20777;-69
2023/03/15 06:06:14;;;;;;;16.83;6.73;;;;;2.30;96098.00;;;;8378194;28;20195;-69
2023/03/15 06:10:17;;;;;;;19.30;7.17;;;;;2.40;96101.00;;;;8372121;28;20296;-69
2023/03/15 06:14:20;;;;;;;27.83;6.43;;;;;2.50;96110.00;;;;8377085;28;20188;-72
2023/03/15 06:18:25;;;;;;;18.00;7.17;;;;;2.60;96115.00;;;;8375763;28;20635;-69
2023/03/15 06:22:28;;;;;;;22.30;6.63;;;;;2.70;96116.00;;;;8374325;28;20277;-69
2023/03/15 06:26:32;;;;;;;24.57;6.17;;;;;2.70;96122.00;;;;8373138;28;20196;-69
2023/03/15 06:30:38;;;;;;;19.50;6.97;;;;;2.60;96126.00;;;;8372892;28;20257;-69
2023/03/15 06:34:43;;;;;;;22.70;6.80;;;;;2.50;96127.00;;;;8374072;28;20216;-70
2023/03/15 06:38:48;;;;;;;21.67;5.93;;;;;2.50;96138.00;;;;8376138;28;20222;-70
2023/03/15 06:42:51;;;;;;;21.67;6.93;;;;;2.70;96153.00;;;;8380760;28;20199;-68
2023/03/15 06:46:55;;;;;;;16.70;7.00;;;;;2.90;96159.00;;;;8398184;28;20624;-68
2023/03/15 06:51:00;;;;;;;28.20;7.47;;;;;2.90;96156.00;;;;8401368;28;20204;-68
2023/03/15 06:55:04;;;;;;;30.77;8.00;;;;;3.10;96158.00;;;;8387230;28;20247;-69
2023/03/15 06:59:07;;;;;;;25.50;7.00;;;;;3.20;96174.00;;;;8393010;28;20277;-68
2023/03/15 07:03:21;;;;;;;32.10;7.73;;;;;3.20;96173.00;;;;8399908;28;20560;-69
2023/03/15 07:07:25;;;;;;;28.73;8.87;;;;;3.20;96169.00;;;;8399352;28;20188;-70
2023/03/15 07:11:33;;;;;;;26.63;9.00;;;;;3.20;96179.00;;;;8401169;28;20204;-71
2023/03/15 07:15:41;;;;;;;36.73;10.37;;;;;3.20;96186.00;;;;8400558;28;20194;-71
2023/03/15 07:19:45;;;;;;;34.07;10.57;;;;;3.20;96180.00;;;;8399189;28;20183;-73
2023/03/15 07:24:03;;;;;;;33.17;9.80;;;;;3.30;96190.00;;;;8399990;28;20219;-79
2023/03/15 07:28:13;;;;;;;32.97;10.23;;;;;3.40;96197.00;;;;8399434;28;20200;-75
2023/03/15 07:32:18;;;;;;;31.07;10.93;;;;;3.40;96196.00;;;;8399845;28;20742;-74
2023/03/15 07:36:25;;;;;;;30.50;10.23;;;;;3.60;96187.00;;;;8399801;28;20595;-76
2023/03/15 07:40:30;;;;;;;24.90;9.37;;;;;3.60;96193.00;;;;8398723;28;20653;-72
2023/03/15 07:44:35;;;;;;;33.97;8.87;;;;;3.60;96197.00;;;;8399698;28;20248;-71
2023/03/15 07:48:38;;;;;;;24.07;8.93;;;;;3.40;96196.00;;;;8398391;28;20203;-70
2023/03/15 07:52:41;;;;;;;39.80;10.93;;;;;3.40;96209.00;;;;8398658;28;20201;-70
2023/03/15 07:56:48;;;;;;;30.47;8.33;;;;;3.60;96211.00;;;;8397149;28;20572;-69
2023/03/15 08:01:00;;;;;;;29.73;11.03;;;;;3.80;96210.00;;;;8398217;28;20206;-68
2023/03/15 08:05:03;;;;;;;33.90;10.20;;;;;4.20;96211.00;;;;8398223;28;20273;-70
2023/03/15 08:09:06;;;;;;;42.63;12.07;;;;;4.10;96218.00;;;;8398477;28;20195;-69
2023/03/15 08:13:11;;;;;;;26.93;11.23;;;;;4.00;96223.00;;;;8398301;28;20596;-69
2023/03/15 08:17:15;;;;;;;34.13;9.73;;;;;3.90;96218.00;;;;8397568;28;20226;-70
2023/03/15 08:21:19;;;;;;;23.53;10.03;;;;;3.90;96219.00;;;;8398123;28;20279;-70
2023/03/15 08:25:24;;;;;;;23.83;8.57;;;;;4.10;96213.00;;;;8396301;28;20648;-70
2023/03/15 08:29:29;;;;;;;33.13;10.93;;;;;4.10;96209.00;;;;8396480;28;20198;-71
2023/03/15 08:33:32;;;;;;;45.07;12.53;;;;;4.20;96214.00;;;;8397647;28;20191;-70
2023/03/15 08:37:35;;;;;;;98.33;28.43;;;;;4.00;96211.00;;;;8397630;28;20230;-71
2023/03/15 08:41:38;;;;;;;52.27;17.53;;;;;4.00;96231.00;;;;8397409;28;20203;-70
2023/03/15 08:45:47;;;;;;;101.87;26.70;;;;;4.00;96228.00;;;;8395987;28;20191;-71
2023/03/15 08:50:08;;;;;;;60.17;18.40;;;;;4.20;96230.00;;;;8398110;28;20287;-71
2023/03/15 08:54:13;;;;;;;61.57;16.60;;;;;4.40;96232.00;;;;8397501;28;20583;-71
2023/03/15 08:58:16;;;;;;;26.80;10.23;;;;;4.50;96244.00;;;;8396127;28;20239;-71
2023/03/15 09:02:22;;;;;;;39.47;14.13;;;;;4.60;96243.00;;;;8395991;28;20273;-71
2023/03/15 09:06:31;;;;;;;51.30;17.67;;;;;4.70;96250.00;;;;8398407;28;20211;-71
2023/03/15 09:10:34;;;;;;;58.63;18.40;;;;;4.50;96250.00;;;;8396537;28;20249;-70
2023/03/15 09:14:37;;;;;;;45.90;14.33;;;;;4.60;96256.00;;;;8396778;28;20193;-70
2023/03/15 09:18:44;;;;;;;51.57;19.03;;;;;4.80;96250.00;;;;8396991;28;20223;-70
2023/03/15 09:22:52;;;;;;;27.37;11.40;;;;;5.10;96264.00;;;;8397616;28;20193;-70
2023/03/15 09:26:58;;;;;;;15.53;7.43;;;;;5.50;96263.00;;;;8397192;28;20229;-70
2023/03/15 09:31:05;;;;;;;14.23;5.67;;;;;5.70;96264.00;;;;8399935;28;20180;-70
2023/03/15 09:35:14;;;;;;;19.77;6.37;;;;;6.00;96277.00;;;;8402659;28;20526;-70
2023/03/15 09:39:26;;;;;;;9.97;4.67;;;;;6.20;96288.00;;;;8403172;28;20657;-70
2023/03/15 09:43:54;;;;;;;24.50;5.47;;;;;6.40;96290.00;;;;8401248;28;20195;-70
2023/03/15 09:48:05;;;;;;;6.93;4.83;;;;;6.60;96305.00;;;;8400130;28;20195;-70
2023/03/15 09:52:21;;;;;;;5.83;4.33;;;;;6.70;96297.00;;;;8403018;28;20222;-70
2023/03/15 09:56:29;;;;;;;19.17;5.27;;;;;7.10;96291.00;;;;8402273;28;20199;-70
2023/03/15 10:00:39;;;;;;;12.07;5.17;;;;;6.90;96301.00;;;;8402256;28;20196;-70
2023/03/15 10:04:46;;;;;;;11.97;3.37;;;;;6.90;96307.00;;;;8402719;28;20262;-70
2023/03/15 10:08:54;;;;;;;11.40;4.30;;;;;6.60;96296.00;;;;8401971;28;20188;-70
2023/03/15 10:13:13;;;;;;;10.90;4.37;;;;;7.20;96310.00;;;;8397243;28;20203;-70
2023/03/15 10:17:25;;;;;;;10.40;3.87;;;;;7.80;96302.00;;;;8401253;28;20311;-70
2023/03/15 10:21:41;;;;;;;12.43;3.80;;;;;7.50;96293.00;;;;8402368;28;20664;-69
2023/03/15 10:25:51;;;;;;;8.57;3.43;;;;;7.50;96302.00;;;;8401224;28;20196;-69
2023/03/15 10:29:57;;;;;;;13.50;3.47;;;;;7.00;96300.00;;;;8400972;28;20200;-70
2023/03/15 10:34:01;;;;;;;7.80;3.37;;;;;6.70;96306.00;;;;8400921;28;20188;-69
2023/03/15 10:38:17;;;;;;;7.20;3.23;;;;;6.50;96300.00;;;;8401672;28;20219;-69
2023/03/15 10:42:28;;;;;;;7.30;3.00;;;;;6.40;96287.00;;;;8400557;28;20611;-69
2023/03/15 10:46:31;;;;;;;5.30;2.63;;;;;6.50;96289.00;;;;8400931;28;20192;-69
2023/03/15 10:50:39;;;;;;;3.13;2.37;;;;;6.80;96285.00;;;;8396586;28;20200;-69
2023/03/15 10:54:43;;;;;;;7.47;2.80;;;;;7.40;96281.00;;;;8367753;28;20276;-69
2023/03/15 10:58:49;;;;;;;7.13;2.70;;;;;7.70;96282.00;;;;8367338;28;20263;-69
2023/03/15 11:03:18;;;;;;;10.73;2.73;;;;;7.90;96279.00;;;;8367645;28;20270;-69
2023/03/15 11:07:21;;;;;;;9.73;2.50;;;;;8.10;96271.00;;;;8365177;28;20318;-70
2023/03/15 11:11:25;;;;;;;6.03;2.43;;;;;8.10;96274.00;;;;8367518;28;20219;-69
2023/03/15 11:15:34;;;;;;;4.20;2.10;;;;;8.00;96267.00;;;;8367018;28;20201;-69
2023/03/15 11:19:42;;;;;;;9.53;2.63;;;;;7.80;96270.00;;;;8365921;28;20316;-69
2023/03/15 11:23:48;;;;;;;11.87;2.70;;;;;7.70;96276.00;;;;8366557;28;20220;-68
2023/03/15 11:27:57;;;;;;;6.27;2.43;;;;;7.60;96264.00;;;;8366897;28;20189;-69
2023/03/15 11:32:15;;;;;;;4.37;2.40;;;;;7.50;96264.00;;;;8365813;28;20193;-69
2023/03/15 11:36:21;;;;;;;4.67;2.00;;;;;7.60;96256.00;;;;8366475;28;20200;-69
2023/03/15 11:40:31;;;;;;;7.97;2.43;;;;;7.60;96270.00;;;;8365901;28;20254;-69
2023/03/15 11:44:41;;;;;;;5.97;2.33;;;;;7.50;96270.00;;;;8366217;28;20193;-69
2023/03/15 11:48:56;;;;;;;7.23;2.80;;;;;7.70;96270.00;;;;8365335;28;20261;-69
2023/03/15 11:53:02;;;;;;;3.60;2.17;;;;;7.70;96251.00;;;;8365385;28;20192;-69
2023/03/15 11:57:27;;;;;;;8.20;1.77;;;;;7.90;96247.00;;;;8365015;28;20197;-70
2023/03/15 12:01:36;;;;;;;57.10;18.67;;;;;7.90;96248.00;;;;8364459;28;20224;-70
2023/03/15 12:05:45;;;;;;;9.63;2.87;;;;;7.70;96253.00;;;;8363804;28;20184;-69
2023/03/15 12:09:51;;;;;;;5.70;2.03;;;;;7.60;96244.00;;;;8365943;28;20534;-70
2023/03/15 12:14:04;;;;;;;6.07;2.13;;;;;7.80;96230.00;;;;8364637;28;20188;-69
2023/03/15 12:18:17;;;;;;;5.17;2.20;;;;;8.00;96234.00;;;;8365127;28;20726;-69
2023/03/15 12:22:22;;;;;;;6.00;2.00;;;;;8.30;96245.00;;;;8364104;28;20707;-70
2023/03/15 12:26:38;;;;;;;8.23;2.00;;;;;8.80;96239.00;;;;8364478;28;20201;-69
2023/03/15 12:30:45;;;;;;;5.20;2.00;;;;;8.90;96231.00;;;;8364234;28;20248;-69
2023/03/15 12:34:52;;;;;;;7.10;1.98;;;;;9.00;96222.00;;;;8365018;28;20185;-69
2023/03/15 12:39:03;;;;;;;2.80;2.38;;;;;8.80;96238.00;;;;8364800;28;20287;-69
2023/03/15 12:43:09;;;;;;;2.95;2.00;;;;;8.60;96240.00;;;;8362842;28;20594;-69
2023/03/15 12:47:13;;;;;;;6.23;2.00;;;;;8.60;96246.00;;;;8363230;28;20247;-69
2023/03/15 12:51:53;;;;;;;2.63;2.40;;;;;8.40;96255.00;;;;8364109;28;20193;-68
2023/03/15 12:56:16;;;;;;;5.40;1.80;;;;;8.20;96261.00;;;;8363930;28;20251;-69
2023/03/15 13:00:23;;;;;;;3.70;1.60;;;;;8.10;96272.00;;;;8363991;28;20220;-69
2023/03/15 13:04:30;;;;;;;4.50;1.70;;;;;8.10;96274.00;;;;8366580;28;20224;-69
2023/03/15 13:08:43;;;;;;;6.17;2.03;;;;;7.90;96263.00;;;;8367676;28;20204;-68
2023/03/15 13:12:53;;;;;;;3.60;2.30;;;;;7.80;96270.00;;;;8370890;28;20188;-69
2023/03/15 13:17:05;;;;;;;5.87;2.10;;;;;7.90;96265.00;;;;8367970;28;20201;-68
2023/03/15 13:21:15;;;;;;;7.33;2.87;;;;;7.90;96278.00;;;;8370739;28;20688;-69
2023/03/15 13:25:29;;;;;;;6.27;2.10;;;;;7.90;96274.00;;;;8370456;28;20653;-69
2023/03/15 13:29:35;;;;;;;8.13;2.17;;;;;8.00;96250.00;;;;8370974;28;20496;-69
2023/03/15 13:33:38;;;;;;;2.50;2.10;;;;;7.70;96282.00;;;;8370469;28;20193;-69
2023/03/15 13:37:43;;;;;;;9.57;3.37;;;;;7.50;96272.00;;;;8369406;28;20243;-68
2023/03/15 13:41:49;;;;;;;4.67;1.90;;;;;7.60;96280.00;;;;8368373;28;20193;-68
2023/03/15 13:45:53;;;;;;;5.83;2.43;;;;;7.70;96278.00;;;;8369770;28;20197;-68
2023/03/15 13:50:03;;;;;;;11.50;3.40;;;;;7.50;96293.00;;;;8369210;28;20196;-68
2023/03/15 13:54:16;;;;;;;9.73;2.50;;;;;7.30;96295.00;;;;8385290;28;20189;-69
2023/03/15 13:58:23;;;;;;;3.50;1.90;;;;;6.80;96300.00;;;;8366866;28;20213;-68
2023/03/15 14:02:35;;;;;;;8.47;2.27;;;;;6.30;96311.00;;;;8369911;28;20346;-68
2023/03/15 14:06:38;;;;;;;5.13;1.77;;;;;6.20;96307.00;;;;8368942;28;20193;-68
2023/03/15 14:10:41;;;;;;;5.57;1.70;;;;;6.30;96308.00;;;;8369577;28;20208;-68
2023/03/15 14:14:51;;;;;;;4.13;1.80;;;;;6.40;96308.00;;;;8367493;28;20193;-68
2023/03/15 14:18:54;;;;;;;8.67;2.53;;;;;6.60;96299.00;;;;8367540;28;20224;-68
2023/03/15 14:22:59;;;;;;;4.50;1.87;;;;;6.70;96293.00;;;;8368414;28;20240;-68
2023/03/15 14:27:09;;;;;;;4.13;2.03;;;;;6.80;96299.00;;;;8368855;28;20522;-68
2023/03/15 14:31:23;;;;;;;2.37;1.83;;;;;6.90;96302.00;;;;8368964;28;20546;-67
2023/03/15 14:35:34;;;;;;;10.10;2.30;;;;;6.90;96297.00;;;;8367931;28;20181;-68
2023/03/15 14:39:40;;;;;;;4.10;2.07;;;;;6.90;96300.00;;;;8368349;28;20224;-68
2023/03/15 14:43:43;;;;;;;7.93;2.20;;;;;6.80;96302.00;;;;8368075;28;20271;-68
2023/03/15 14:47:51;;;;;;;2.80;1.70;;;;;6.70;96290.00;;;;8368122;28;20200;-68
2023/03/15 14:52:02;;;;;;;4.13;2.03;;;;;6.60;96296.00;;;;8368162;28;20259;-70
2023/03/15 14:56:12;;;;;;;14.53;2.27;;;;;6.70;96296.00;;;;8366852;28;20196;-70
2023/03/15 15:00:19;;;;;;;3.43;2.10;;;;;6.90;96283.00;;;;8367144;28;20270;-71
2023/03/15 15:04:32;;;;;;;4.53;1.90;;;;;6.80;96303.00;;;;8367087;28;20228;-71
2023/03/15 15:08:40;;;;;;;9.60;1.83;;;;;6.70;96294.00;;;;8367529;28;20203;-71
2023/03/15 15:12:44;;;;;;;1.70;1.60;;;;;6.50;96288.00;;;;8367095;28;20597;-72
2023/03/15 15:16:58;;;;;;;2.47;1.80;;;;;6.40;96296.00;;;;8367629;28;20599;-71
2023/03/15 15:21:12;;;;;;;1.83;1.73;;;;;6.30;96302.00;;;;8366539;28;20531;-71
2023/03/15 15:25:18;;;;;;;3.13;2.60;;;;;6.20;96297.00;;;;8367415;28;20189;-71
2023/03/15 15:29:23;;;;;;;28.53;10.13;;;;;6.20;96296.00;;;;8365845;28;20283;-72
2023/03/15 15:33:33;;;;;;;8.13;3.17;;;;;6.20;96298.00;;;;8366408;28;20316;-72
2023/03/15 15:37:40;;;;;;;11.27;6.50;;;;;6.20;96307.00;;;;8366478;28;20621;-72
2023/03/15 15:41:47;;;;;;;9.70;5.07;;;;;6.00;96311.00;;;;8381465;28;20228;-73
2023/03/15 15:45:51;;;;;;;131.73;42.80;;;;;5.90;96312.00;;;;8366540;28;20204;-73
2023/03/15 15:50:08;;;;;;;60.63;25.07;;;;;6.00;96304.00;;;;8426670;27;20532;-72
2023/03/15 15:54:15;;;;;;;7.37;5.63;;;;;6.00;96311.00;;;;8427114;28;20196;-72
2023/03/15 15:58:18;;;;;;;6.43;4.53;;;;;5.90;96318.00;;;;8426929;28;20564;-71
2023/03/15 16:02:22;;;;;;;4.97;2.90;;;;;5.80;96319.00;;;;8424673;28;20229;-70
2023/03/15 16:06:27;;;;;;;2.50;2.23;;;;;5.80;96327.00;;;;8425147;28;20270;-69
2023/03/15 16:10:33;;;;;;;3.20;2.40;;;;;5.70;96330.00;;;;8426008;28;20233;-69
2023/03/15 16:14:40;;;;;;;8.63;2.40;;;;;5.70;96340.00;;;;8424928;28;20697;-70
2023/03/15 16:18:46;;;;;;;7.80;2.93;;;;;5.50;96352.00;;;;8426108;28;20199;-71
2023/03/15 16:22:57;;;;;;;4.07;2.53;;;;;5.50;96350.00;;;;8424678;28;20245;-71
2023/03/15 16:27:02;;;;;;;3.63;2.37;;;;;5.40;96353.00;;;;8426001;28;20245;-71
2023/03/15 16:31:09;;;;;;;2.47;2.23;;;;;5.40;96345.00;;;;8423893;28;20238;-69
2023/03/15 16:35:14;;;;;;;3.53;2.40;;;;;5.40;96345.00;;;;8425524;28;20187;-70
2023/03/15 16:39:21;;;;;;;3.47;2.30;;;;;5.30;96348.00;;;;8425268;28;20679;-70
2023/03/15 16:43:24;;;;;;;3.53;2.10;;;;;5.20;96359.00;;;;8424087;28;20191;-70
2023/03/15 16:47:29;;;;;;;4.83;2.33;;;;;5.10;96370.00;;;;8423207;28;20223;-69
2023/03/15 16:51:34;;;;;;;2.97;2.50;;;;;4.90;96376.00;;;;8424512;28;20192;-70
2023/03/15 16:55:39;;;;;;;8.37;3.60;;;;;4.80;96384.00;;;;8424503;28;20533;-71
2023/03/15 16:59:45;;;;;;;17.10;8.33;;;;;4.70;96398.00;;;;8410899;28;20643;-71
2023/03/15 17:03:48;;;;;;;135.77;76.73;;;;;4.60;96393.00;;;;8402305;28;20224;-73
2023/03/15 17:07:54;;;;;;;6.17;4.97;;;;;4.50;96393.00;;;;8402327;28;20255;-73
2023/03/15 17:11:59;;;;;;;4.57;3.20;;;;;4.30;96397.00;;;;8401707;28;20196;-73
2023/03/15 17:16:05;;;;;;;4.57;3.30;;;;;4.10;96406.00;;;;8403189;28;20251;-72
2023/03/15 17:20:11;;;;;;;14.33;10.53;;;;;4.00;96409.00;;;;8399761;28;20196;-72
2023/03/15 17:24:15;;;;;;;719.03;294.53;;;;;3.80;96424.00;;;;8400894;28;20196;-72
2023/03/15 17:28:20;;;;;;;585.90;184.20;;;;;3.70;96434.00;;;;8401319;28;20228;-72
2023/03/15 17:32:28;;;;;;;47.60;17.67;;;;;3.60;96441.00;;;;8401401;28;20514;-72
2023/03/15 17:36:36;;;;;;;186.10;54.33;;;;;3.50;96444.00;;;;8400635;28;20192;-72
2023/03/15 17:40:40;;;;;;;42.97;19.90;;;;;3.40;96443.00;;;;8400439;28;20286;-72
2023/03/15 17:44:44;;;;;;;15.33;11.80;;;;;3.30;96445.00;;;;8400688;28;20198;-72
2023/03/15 17:48:51;;;;;;;7.37;4.47;;;;;3.20;96448.00;;;;8399934;28;20222;-72
2023/03/15 17:52:58;;;;;;;9.50;4.47;;;;;3.10;96462.00;;;;8400806;28;20196;-72
2023/03/15 17:57:01;;;;;;;9.53;4.53;;;;;3.00;96443.00;;;;8400809;28;20196;-72
2023/03/15 18:01:13;;;;;;;7.43;4.10;;;;;2.90;96458.00;;;;8399012;28;20219;-72
2023/03/15 18:05:21;;;;;;;7.60;4.47;;;;;2.80;96462.00;;;;8400357;28;20232;-73
2023/03/15 18:09:29;;;;;;;7.17;4.50;;;;;2.70;96461.00;;;;8400086;28;20661;-72
2023/03/15 18:13:33;;;;;;;9.77;5.10;;;;;2.50;96467.00;;;;8400058;28;20287;-72
2023/03/15 18:17:37;;;;;;;14.47;6.20;;;;;2.40;96477.00;;;;8400420;28;20260;-72
2023/03/15 18:21:42;;;;;;;6.17;3.57;;;;;2.30;96479.00;;;;8398676;28;20195;-73
2023/03/15 18:25:51;;;;;;;8.03;3.90;;;;;2.30;96478.00;;;;8400148;28;20203;-72
2023/03/15 18:29:54;;;;;;;9.63;5.27;;;;;2.30;96488.00;;;;8398977;28;20317;-70
2023/03/15 18:33:59;;;;;;;10.77;5.47;;;;;2.40;96489.00;;;;8398888;28;20195;-71
2023/03/15 18:38:03;;;;;;;16.33;7.17;;;;;2.50;96500.00;;;;8399391;28;20248;-71
2023/03/15 18:42:06;;;;;;;12.30;6.97;;;;;2.60;96521.00;;;;8399023;28;20203;-72
2023/03/15 18:46:13;;;;;;;8.23;5.07;;;;;2.60;96510.00;;;;8399091;28;20282;-73
2023/03/15 18:50:20;;;;;;;10.53;5.37;;;;;2.60;96517.00;;;;8398139;28;20283;-72
2023/03/15 18:54:27;;;;;;;6.17;4.10;;;;;2.70;96512.00;;;;8398187;28;20195;-71
2023/03/15 18:58:30;;;;;;;9.67;5.37;;;;;2.70;96509.00;;;;8398922;28;20567;-71
2023/03/15 19:02:33;;;;;;;6.13;4.97;;;;;2.70;96516.00;;;;8397997;28;20216;-72
2023/03/15 19:06:40;;;;;;;13.30;5.57;;;;;2.70;96521.00;;;;8398770;28;20525;-72
2023/03/15 19:10:45;;;;;;;9.27;6.20;;;;;2.80;96515.00;;;;8396836;28;20226;-72
2023/03/15 19:14:52;;;;;;;7.07;5.27;;;;;2.80;96519.00;;;;8398626;28;20285;-72
2023/03/15 19:18:59;;;;;;;12.30;5.40;;;;;2.80;96527.00;;;;8398199;28;20215;-71
2023/03/15 19:23:05;;;;;;;7.70;4.67;;;;;2.80;96523.00;;;;8397203;28;20203;-71
2023/03/15 19:27:11;;;;;;;6.00;4.40;;;;;2.80;96521.00;;;;8390880;28;20196;-71
2023/03/15 19:31:15;;;;;;;4.80;3.73;;;;;2.70;96526.00;;;;8396891;28;20248;-71
2023/03/15 19:35:21;;;;;;;3.70;3.27;;;;;2.70;96523.00;;;;8396737;28;20206;-71
2023/03/15 19:39:31;;;;;;;5.17;3.63;;;;;2.60;96525.00;;;;8397359;28;20282;-72
2023/03/15 19:43:41;;;;;;;8.13;4.00;;;;;2.60;96527.00;;;;8395701;28;20179;-71
2023/03/15 19:47:45;;;;;;;4.20;3.63;;;;;2.60;96530.00;;;;8396844;28;20267;-72
2023/03/15 19:51:52;;;;;;;5.20;3.40;;;;;2.50;96524.00;;;;8395520;28;20350;-71
2023/03/15 19:56:06;;;;;;;5.40;3.70;;;;;2.40;96526.00;;;;8397422;28;20537;-72
2023/03/15 20:00:13;;;;;;;5.63;3.33;;;;;2.40;96544.00;;;;8396409;28;20209;-72
2023/03/15 20:04:20;;;;;;;5.03;3.80;;;;;2.30;96540.00;;;;8396867;28;20222;-72
2023/03/15 20:08:24;;;;;;;6.20;4.17;;;;;2.10;96544.00;;;;8393573;28;20227;-72
2023/03/15 20:12:32;;;;;;;6.73;3.90;;;;;2.10;96548.00;;;;8397663;28;20194;-72
2023/03/15 20:16:49;;;;;;;5.90;4.00;;;;;2.00;96540.00;;;;8397191;28;20197;-72
2023/03/15 20:20:54;;;;;;;16.60;8.93;;;;;1.90;96546.00;;;;8396504;28;20203;-71
2023/03/15 20:25:00;;;;;;;17.43;7.57;;;;;1.90;96557.00;;;;8396908;28;20210;-71
2023/03/15 20:29:08;;;;;;;15.47;8.07;;;;;1.80;96564.00;;;;8396100;28;20280;-71
2023/03/15 20:33:14;;;;;;;12.67;7.67;;;;;1.80;96568.00;;;;8397556;28;20218;-70
2023/03/15 20:37:17;;;;;;;9.50;5.93;;;;;1.70;96565.00;;;;8401308;28;20252;-71
2023/03/15 20:41:20;;;;;;;11.27;6.03;;;;;1.60;96573.00;;;;8402640;28;20203;-71